x

Gulf Of Maine - 78 Nm East Of Portsmouth, Nh (44005) Wave Buoy

3:50 - Sat 27th Dec 2014 All times are EST. -5 hours from GMT.

  • Sig Wave height 3.3ft
  • Peak Period 13s
  • Average Period 5s
  • Wind
    11mph, 13mph gusts
  • Sea Temp 48°f
  • Air Temp 46°f
  • Sea Pressure 1018.6mb
  • Gulf Of Maine - 78 Nm East Of Portsmouth, Nh
  • Gulf Of Maine - 78 Nm East Of Portsmouth, Nh

More Historic Weather Station data

Upgrade to MSW Pro to gain access to the past 30 days of data for over 8000 Wavebouys and Weather Stations around the globe.

Join Pro

Comparision Forecast

View Surf forecast
   
sam. 12/27 3:50 3.5ft 13s 5s 11 13 mph 1018.6mb 48f 46f
2:50 3.5ft 14s 6s 9 13 mph 1019.2mb 48f 46f
1:50 3.5ft 13s 6s 11 13 mph 1019.1mb 48f 46f
12:50 3.5ft 14s 5s 9 11 mph 1019.3mb 48f 46f
11:50 3ft 14s 5s 9
mph
1020mb 48f 45f
10:50 3ft 5s 5s 9 11 mph 1021mb 48f 45f
9:50 3.5ft 15s 5s 9 11 mph 1021.6mb 48f 45f
8:50 3.5ft 15s 5s 11 13 mph 1021.2mb 48f 45f
7:50 3.5ft 15s 5s 11 13 mph 1020.8mb 48f 45f
6:50 3.5ft 15s 6s 11 13 mph 1020mb 48f 44f
5:50 4.5ft 15s 6s 11 13 mph 1019.4mb 48f 44f
4:50 4.5ft 14s 5s 7 9 mph 1018.9mb 48f 44f
3:50 4.5ft 6s 5s 13 16 mph 1018.5mb 48f 44f
2:50 5ft 14s 5s 16 20 mph 1018.4mb 48f 44f
1:50 5ft 6s 5s 16 18 mph 1017.8mb 48f 44f
12:50  -   -   -  22 25 mph 1017.3mb 48f 45f
ven. 12/26 11:50 4.5ft 5s 4s 25 29 mph 1018mb 48f 46f
10:50 4.5ft 5s 4s 22 27 mph 1018.2mb 48f 47f
9:50 5ft 5s 4s 22 27 mph 1018.2mb 48f 47f
8:50 5ft 5s 5s 25 29 mph 1018.5mb 48f 47f
7:50 4.5ft 6s 4s 20 27 mph 1018.5mb 48f 47f
6:50 4.5ft 6s 5s 18 22 mph 1018.2mb 48f 47f
5:50 4.5ft 6s 5s 20 22 mph 1017.9mb 48f 48f
4:50 5ft 6s 5s 18 22 mph 1017.6mb 48f 47f
3:50 5.5ft 6s 5s 20 25 mph 1017.5mb 48f 47f
2:50 5ft 6s 5s 20 25 mph 1016.9mb 48f 47f
1:50 5.5ft 6s 5s 20 25 mph 1016.6mb 48f 47f
12:50 6ft 6s 5s 20 25 mph 1016.5mb 48f 46f
11:50  -   -   -  22 29 mph 1016.7mb 48f 46f
10:50 6.5ft 6s 5s 25 29 mph 1017.1mb 48f 46f
9:50 7ft 6s 5s 25 29 mph 1017.3mb 48f 45f
8:50 7.5ft 6s 5s 25 29 mph 1016.8mb 48f 46f
7:50 7ft 7s 5s 27 31 mph 1015.8mb 48f 46f
6:50 7ft 6s 5s 27 34 mph 1015.1mb 48f 45f
5:50 6.5ft 7s 5s 27 34 mph 1014.5mb 48f 45f
4:50  -   -   -  29
mph
1013.9mb - 46f
3:50  -   -   -  27 31 mph 1012.6mb 48f 46f
2:50 7.5ft 7s 5s 29 34 mph 1012.6mb 48f 46f
1:50 8ft 7s 5s 29 38 mph 1011.7mb 48f 46f
12:50 8ft 7s 5s 29 36 mph 1010.5mb 48f 46f
jeu. 12/25 11:50 9ft 7s 6s 31 38 mph 1009.5mb 48f 47f
9:50  -   -   -  29 38 mph 1008.7mb 48f 48f
8:50 9.5ft 6s 6s 31 36 mph 1007.5mb 48f 48f
7:50 9.5ft 7s 6s 31 38 mph 1006.4mb 48f 49f
6:50 8.5ft 7s 6s 29 38 mph 1005.6mb 49f 49f
5:50 8ft 7s 5s 29 36 mph 1004.1mb 49f 50f
4:50 7ft 6s 5s 29 36 mph 1002.8mb 49f 50f
3:50 7.5ft 6s 5s 29 36 mph 1001.4mb 49f 50f
2:50 7ft 6s 5s 25 31 mph 1000mb 49f 50f
1:50  -   -   -  31 38 mph 998.7mb 49f 50f
12:50 6.5ft 7s 5s 31 40 mph 997.5mb 49f 50f
11:50  -   -   -  25 31 mph 997.5mb 49f 52f
10:50  -   -   -  27 36 mph 997mb 49f 53f
9:50 7ft 8s 5s 25 29 mph 997.7mb 49f 53f
8:50 8ft 8s 6s 27 31 mph 997.5mb 49f 53f
7:50 8ft 8s 5s 27 34 mph 997.7mb 49f 53f
6:50 8ft 7s 6s 22 27 mph 997.4mb 49f 53f
5:50 7ft 7s 6s 27 31 mph 998mb 49f 53f
4:50 8ft 7s 6s 20 22 mph 998.4mb 49f 52f
3:50 7.5ft 7s 6s 22 25 mph 998.8mb 49f 53f
2:50 7ft 7s 5s 22 27 mph 999.5mb 49f 53f
1:50 6.5ft 6s 5s 27 31 mph 999.4mb 49f 55f
12:50 5.5ft 6s 5s 27 31 mph 999.6mb 49f 55f
mer. 12/24 11:50 5ft 5s 5s 22 27 mph 1001.2mb 49f 54f
10:50 5ft 5s 5s 22 27 mph 1002.8mb 49f 53f
9:50 5ft 7s 5s 22 25 mph 1004mb 49f 53f
8:50 5.5ft 7s 5s 25 29 mph 1005.3mb 49f 54f
7:50 5ft 8s 5s 22 27 mph 1006.3mb 49f 52f
6:50 5ft 8s 6s 18 22 mph 1007.9mb 49f 51f
5:50 5ft 8s 6s 16 18 mph 1009.1mb 49f 50f
4:50 5.5ft 8s 6s 13 16 mph 1010.2mb 49f 49f
3:50 5ft 8s 6s 13 16 mph 1010.8mb 49f 49f
2:50 6.5ft 8s 6s 13 18 mph 1011.8mb 49f 49f
1:50 6ft 7s 5s 16 18 mph 1012.5mb 49f 48f
12:50 6ft 6s 5s 13 16 mph 1013.7mb 49f 47f
11:50 6ft 9s 5s 16 18 mph 1015.3mb 49f 47f
10:50 5.5ft 8s 5s 18 22 mph 1015.8mb 49f 47f
9:50 6ft 8s 5s 20 25 mph 1016.9mb 48f 47f
8:50 7ft 8s 6s 20 25 mph 1017.8mb 48f 46f
7:50 6.5ft 8s 5s 20 25 mph 1018.8mb 48f 46f
6:50 7ft 8s 6s 18 22 mph 1019.7mb 48f 45f
5:50 7.5ft 8s 6s 18 22 mph 1019.9mb 48f 45f
4:50 8.5ft 8s 6s 20 25 mph 1019.3mb 48f 45f
3:50 7.5ft 9s 6s 22 29 mph 1019.6mb 48f 44f
2:50 8ft 9s 6s 20 25 mph 1020.6mb 48f 44f
1:50 8ft 9s 6s 18 25 mph 1021.1mb 48f 45f
12:50 8ft 8s 6s 20 25 mph 1020.8mb 48f 45f
mar. 12/23 11:50 8.5ft 9s 6s 20 25 mph 1021.3mb 48f 45f
10:50 7.5ft 8s 6s 20 22 mph 1021.7mb 48f 45f
9:50 7.5ft 8s 6s 22 27 mph 1021.6mb 49f 45f